sensor_id;sensor_type;location;lat;lon;timestamp;P1;durP1;ratioP1;P2;durP2;ratioP2
58918;SDS011;44704;50.122;19.932;2022-12-20T00:01:29;137.00;;;56.40;;
58918;SDS011;44704;50.122;19.932;2022-12-20T00:03:59;137.80;;;58.50;;
58918;SDS011;44704;50.122;19.932;2022-12-20T00:06:28;132.40;;;57.20;;
58918;SDS011;44704;50.122;19.932;2022-12-20T00:08:56;152.10;;;60.20;;
58918;SDS011;44704;50.122;19.932;2022-12-20T00:11:25;168.30;;;66.60;;
58918;SDS011;44704;50.122;19.932;2022-12-20T00:13:54;170.30;;;71.50;;
58918;SDS011;44704;50.122;19.932;2022-12-20T00:29:06;175.20;;;76.50;;
58918;SDS011;44704;50.122;19.932;2022-12-20T00:31:32;160.30;;;68.20;;
58918;SDS011;44704;50.122;19.932;2022-12-20T00:34:00;176.40;;;71.50;;
58918;SDS011;44704;50.122;19.932;2022-12-20T00:36:29;172.00;;;67.70;;
58918;SDS011;44704;50.122;19.932;2022-12-20T00:38:57;168.70;;;74.40;;
58918;SDS011;44704;50.122;19.932;2022-12-20T00:41:26;151.00;;;69.30;;
58918;SDS011;44704;50.122;19.932;2022-12-20T00:43:54;164.40;;;70.60;;
58918;SDS011;44704;50.122;19.932;2022-12-20T00:46:22;157.00;;;70.00;;
58918;SDS011;44704;50.122;19.932;2022-12-20T00:51:19;143.90;;;63.10;;
58918;SDS011;44704;50.122;19.932;2022-12-20T00:53:47;150.50;;;64.70;;
58918;SDS011;44704;50.122;19.932;2022-12-20T00:56:14;145.00;;;62.40;;
58918;SDS011;44704;50.122;19.932;2022-12-20T00:58:41;139.20;;;66.10;;
58918;SDS011;44704;50.122;19.932;2022-12-20T01:01:14;154.90;;;64.20;;
58918;SDS011;44704;50.122;19.932;2022-12-20T01:03:47;137.10;;;60.50;;
58918;SDS011;44704;50.122;19.932;2022-12-20T01:06:14;125.80;;;53.40;;
58918;SDS011;44704;50.122;19.932;2022-12-20T01:08:41;101.70;;;50.10;;
58918;SDS011;44704;50.122;19.932;2022-12-20T01:11:09;113.40;;;50.10;;
58918;SDS011;44704;50.122;19.932;2022-12-20T01:13:41;109.20;;;48.90;;
58918;SDS011;44704;50.122;19.932;2022-12-20T01:18:40;103.60;;;46.60;;
58918;SDS011;44704;50.122;19.932;2022-12-20T01:21:08;105.50;;;48.20;;
58918;SDS011;44704;50.122;19.932;2022-12-20T01:23:37;115.00;;;48.70;;
58918;SDS011;44704;50.122;19.932;2022-12-20T01:26:06;114.40;;;49.70;;
58918;SDS011;44704;50.122;19.932;2022-12-20T01:28:36;128.60;;;53.10;;
58918;SDS011;44704;50.122;19.932;2022-12-20T01:31:06;122.20;;;55.80;;
58918;SDS011;44704;50.122;19.932;2022-12-20T01:33:33;138.30;;;55.60;;
58918;SDS011;44704;50.122;19.932;2022-12-20T01:36:01;129.60;;;53.50;;
58918;SDS011;44704;50.122;19.932;2022-12-20T01:38:30;129.30;;;56.80;;
58918;SDS011;44704;50.122;19.932;2022-12-20T01:40:57;126.00;;;54.40;;
58918;SDS011;44704;50.122;19.932;2022-12-20T01:43:25;130.70;;;56.60;;
58918;SDS011;44704;50.122;19.932;2022-12-20T01:46:09;137.60;;;59.90;;
58918;SDS011;44704;50.122;19.932;2022-12-20T01:48:38;136.10;;;57.00;;
58918;SDS011;44704;50.122;19.932;2022-12-20T01:51:06;132.00;;;56.80;;
58918;SDS011;44704;50.122;19.932;2022-12-20T01:53:33;133.60;;;56.20;;
58918;SDS011;44704;50.122;19.932;2022-12-20T01:56:01;136.30;;;58.40;;
58918;SDS011;44704;50.122;19.932;2022-12-20T01:58:30;123.00;;;57.00;;
58918;SDS011;44704;50.122;19.932;2022-12-20T02:00:57;130.40;;;58.70;;
58918;SDS011;44704;50.122;19.932;2022-12-20T02:03:23;135.30;;;58.00;;
58918;SDS011;44704;50.122;19.932;2022-12-20T02:05:50;129.30;;;54.90;;
58918;SDS011;44704;50.122;19.932;2022-12-20T02:08:18;122.30;;;52.90;;
58918;SDS011;44704;50.122;19.932;2022-12-20T02:13:42;144.70;;;64.50;;
58918;SDS011;44704;50.122;19.932;2022-12-20T02:16:31;143.40;;;63.00;;
58918;SDS011;44704;50.122;19.932;2022-12-20T02:32:39;119.00;;;49.80;;
58918;SDS011;44704;50.122;19.932;2022-12-20T02:35:30;104.70;;;45.30;;
58918;SDS011;44704;50.122;19.932;2022-12-20T02:37:59;99.90;;;44.60;;
58918;SDS011;44704;50.122;19.932;2022-12-20T02:40:31;90.80;;;41.40;;
58918;SDS011;44704;50.122;19.932;2022-12-20T02:43:05;102.90;;;45.60;;
58918;SDS011;44704;50.122;19.932;2022-12-20T02:45:55;99.00;;;45.60;;
58918;SDS011;44704;50.122;19.932;2022-12-20T02:48:24;102.80;;;43.70;;
58918;SDS011;44704;50.122;19.932;2022-12-20T02:50:53;99.40;;;43.80;;
58918;SDS011;44704;50.122;19.932;2022-12-20T02:53:22;93.50;;;43.70;;
58918;SDS011;44704;50.122;19.932;2022-12-20T02:58:56;92.30;;;42.90;;
58918;SDS011;44704;50.122;19.932;2022-12-20T03:01:31;95.00;;;40.70;;
58918;SDS011;44704;50.122;19.932;2022-12-20T03:04:01;97.00;;;43.60;;
58918;SDS011;44704;50.122;19.932;2022-12-20T03:06:28;150.00;;;65.70;;
58918;SDS011;44704;50.122;19.932;2022-12-20T03:08:56;147.70;;;62.40;;
58918;SDS011;44704;50.122;19.932;2022-12-20T03:11:24;148.60;;;64.40;;
58918;SDS011;44704;50.122;19.932;2022-12-20T03:13:50;139.20;;;64.20;;
58918;SDS011;44704;50.122;19.932;2022-12-20T03:16:16;153.10;;;68.60;;
58918;SDS011;44704;50.122;19.932;2022-12-20T03:18:43;149.10;;;66.90;;
58918;SDS011;44704;50.122;19.932;2022-12-20T03:21:11;151.70;;;64.70;;
58918;SDS011;44704;50.122;19.932;2022-12-20T03:23:37;146.30;;;65.90;;
58918;SDS011;44704;50.122;19.932;2022-12-20T03:26:06;140.20;;;62.20;;
58918;SDS011;44704;50.122;19.932;2022-12-20T03:28:36;132.90;;;58.90;;
58918;SDS011;44704;50.122;19.932;2022-12-20T03:31:05;136.60;;;61.40;;
58918;SDS011;44704;50.122;19.932;2022-12-20T03:33:33;131.50;;;61.70;;
58918;SDS011;44704;50.122;19.932;2022-12-20T03:36:05;141.10;;;64.00;;
58918;SDS011;44704;50.122;19.932;2022-12-20T03:38:31;153.50;;;65.40;;
58918;SDS011;44704;50.122;19.932;2022-12-20T03:40:57;164.20;;;70.20;;
58918;SDS011;44704;50.122;19.932;2022-12-20T03:43:23;167.30;;;72.50;;
58918;SDS011;44704;50.122;19.932;2022-12-20T03:45:50;169.10;;;72.10;;
58918;SDS011;44704;50.122;19.932;2022-12-20T03:48:17;159.70;;;71.80;;
58918;SDS011;44704;50.122;19.932;2022-12-20T03:50:43;144.20;;;65.40;;
58918;SDS011;44704;50.122;19.932;2022-12-20T03:53:09;163.70;;;68.70;;
58918;SDS011;44704;50.122;19.932;2022-12-20T03:55:35;150.40;;;68.80;;
58918;SDS011;44704;50.122;19.932;2022-12-20T03:58:02;153.90;;;68.20;;
58918;SDS011;44704;50.122;19.932;2022-12-20T04:00:33;148.50;;;67.30;;
58918;SDS011;44704;50.122;19.932;2022-12-20T04:03:26;156.20;;;67.40;;
58918;SDS011;44704;50.122;19.932;2022-12-20T04:05:53;154.30;;;67.00;;
58918;SDS011;44704;50.122;19.932;2022-12-20T04:08:19;163.10;;;69.00;;
58918;SDS011;44704;50.122;19.932;2022-12-20T04:10:47;161.00;;;65.20;;
58918;SDS011;44704;50.122;19.932;2022-12-20T04:13:33;141.90;;;62.20;;
58918;SDS011;44704;50.122;19.932;2022-12-20T04:15:59;139.10;;;59.70;;
58918;SDS011;44704;50.122;19.932;2022-12-20T04:18:27;136.10;;;57.40;;
58918;SDS011;44704;50.122;19.932;2022-12-20T04:20:53;131.80;;;60.60;;
58918;SDS011;44704;50.122;19.932;2022-12-20T04:23:24;127.90;;;55.90;;
58918;SDS011;44704;50.122;19.932;2022-12-20T04:25:50;135.70;;;57.40;;
58918;SDS011;44704;50.122;19.932;2022-12-20T04:28:17;142.20;;;55.20;;
58918;SDS011;44704;50.122;19.932;2022-12-20T04:30:44;125.70;;;54.60;;
58918;SDS011;44704;50.122;19.932;2022-12-20T04:33:11;131.30;;;55.90;;
58918;SDS011;44704;50.122;19.932;2022-12-20T04:35:40;124.00;;;55.80;;
58918;SDS011;44704;50.122;19.932;2022-12-20T04:38:06;128.30;;;54.60;;
58918;SDS011;44704;50.122;19.932;2022-12-20T04:40:32;131.40;;;55.20;;
58918;SDS011;44704;50.122;19.932;2022-12-20T04:43:01;133.60;;;58.50;;
58918;SDS011;44704;50.122;19.932;2022-12-20T04:45:27;136.90;;;56.90;;
58918;SDS011;44704;50.122;19.932;2022-12-20T04:47:56;139.50;;;57.10;;
58918;SDS011;44704;50.122;19.932;2022-12-20T04:50:26;131.20;;;58.70;;
58918;SDS011;44704;50.122;19.932;2022-12-20T04:52:53;133.00;;;60.20;;
58918;SDS011;44704;50.122;19.932;2022-12-20T04:55:38;134.00;;;60.00;;
58918;SDS011;44704;50.122;19.932;2022-12-20T04:58:06;140.20;;;60.50;;
58918;SDS011;44704;50.122;19.932;2022-12-20T05:00:33;131.30;;;58.00;;
58918;SDS011;44704;50.122;19.932;2022-12-20T05:03:06;140.90;;;61.60;;
58918;SDS011;44704;50.122;19.932;2022-12-20T05:05:33;117.60;;;50.90;;
58918;SDS011;44704;50.122;19.932;2022-12-20T05:08:00;83.70;;;39.30;;
58918;SDS011;44704;50.122;19.932;2022-12-20T05:10:27;73.50;;;32.50;;
58918;SDS011;44704;50.122;19.932;2022-12-20T05:12:55;70.80;;;31.90;;
58918;SDS011;44704;50.122;19.932;2022-12-20T05:15:33;70.80;;;32.60;;
58918;SDS011;44704;50.122;19.932;2022-12-20T05:17:59;73.40;;;32.40;;
58918;SDS011;44704;50.122;19.932;2022-12-20T05:20:31;71.50;;;31.10;;
58918;SDS011;44704;50.122;19.932;2022-12-20T05:22:59;81.00;;;33.30;;
58918;SDS011;44704;50.122;19.932;2022-12-20T05:25:45;78.60;;;33.80;;
58918;SDS011;44704;50.122;19.932;2022-12-20T05:28:32;72.80;;;30.50;;
58918;SDS011;44704;50.122;19.932;2022-12-20T05:30:59;75.40;;;31.70;;
58918;SDS011;44704;50.122;19.932;2022-12-20T05:33:29;69.30;;;31.70;;
58918;SDS011;44704;50.122;19.932;2022-12-20T05:35:56;73.40;;;33.40;;
58918;SDS011;44704;50.122;19.932;2022-12-20T05:38:22;66.80;;;30.50;;
58918;SDS011;44704;50.122;19.932;2022-12-20T05:40:50;59.20;;;27.80;;
58918;SDS011;44704;50.122;19.932;2022-12-20T05:43:17;65.40;;;29.00;;
58918;SDS011;44704;50.122;19.932;2022-12-20T05:45:45;60.70;;;28.00;;
58918;SDS011;44704;50.122;19.932;2022-12-20T05:48:19;55.70;;;26.30;;
58918;SDS011;44704;50.122;19.932;2022-12-20T05:50:46;59.40;;;28.70;;
58918;SDS011;44704;50.122;19.932;2022-12-20T05:53:32;58.40;;;28.10;;
58918;SDS011;44704;50.122;19.932;2022-12-20T05:56:02;60.20;;;27.10;;
58918;SDS011;44704;50.122;19.932;2022-12-20T06:01:02;54.90;;;24.40;;
58918;SDS011;44704;50.122;19.932;2022-12-20T06:03:32;53.70;;;24.60;;
58918;SDS011;44704;50.122;19.932;2022-12-20T06:05:59;56.20;;;25.60;;
58918;SDS011;44704;50.122;19.932;2022-12-20T06:08:29;45.90;;;22.50;;
58918;SDS011;44704;50.122;19.932;2022-12-20T06:10:56;49.40;;;25.00;;
58918;SDS011;44704;50.122;19.932;2022-12-20T06:13:23;54.90;;;24.00;;
58918;SDS011;44704;50.122;19.932;2022-12-20T06:15:52;56.20;;;24.90;;
58918;SDS011;44704;50.122;19.932;2022-12-20T06:18:19;49.90;;;21.80;;
58918;SDS011;44704;50.122;19.932;2022-12-20T06:20:49;46.70;;;22.80;;
58918;SDS011;44704;50.122;19.932;2022-12-20T06:23:17;41.70;;;21.00;;
58918;SDS011;44704;50.122;19.932;2022-12-20T06:25:54;47.70;;;20.80;;
58918;SDS011;44704;50.122;19.932;2022-12-20T06:28:21;45.90;;;21.70;;
58918;SDS011;44704;50.122;19.932;2022-12-20T06:30:55;48.50;;;24.40;;
58918;SDS011;44704;50.122;19.932;2022-12-20T06:33:36;45.70;;;21.50;;
58918;SDS011;44704;50.122;19.932;2022-12-20T06:36:02;42.10;;;20.60;;
58918;SDS011;44704;50.122;19.932;2022-12-20T06:38:29;38.40;;;19.70;;
58918;SDS011;44704;50.122;19.932;2022-12-20T06:40:55;52.80;;;24.20;;
58918;SDS011;44704;50.122;19.932;2022-12-20T06:43:22;50.50;;;21.90;;
58918;SDS011;44704;50.122;19.932;2022-12-20T06:45:48;47.00;;;22.30;;
58918;SDS011;44704;50.122;19.932;2022-12-20T06:48:14;54.50;;;25.60;;
58918;SDS011;44704;50.122;19.932;2022-12-20T06:50:42;53.70;;;25.50;;
58918;SDS011;44704;50.122;19.932;2022-12-20T06:53:09;51.30;;;24.80;;
58918;SDS011;44704;50.122;19.932;2022-12-20T06:55:35;53.00;;;25.20;;
58918;SDS011;44704;50.122;19.932;2022-12-20T06:58:02;48.00;;;22.00;;
58918;SDS011;44704;50.122;19.932;2022-12-20T07:00:29;45.00;;;21.00;;
58918;SDS011;44704;50.122;19.932;2022-12-20T07:02:55;51.50;;;25.00;;
58918;SDS011;44704;50.122;19.932;2022-12-20T07:05:21;46.90;;;22.80;;
58918;SDS011;44704;50.122;19.932;2022-12-20T07:07:47;49.40;;;21.50;;
58918;SDS011;44704;50.122;19.932;2022-12-20T07:10:14;50.10;;;23.30;;
58918;SDS011;44704;50.122;19.932;2022-12-20T07:12:40;44.30;;;21.90;;
58918;SDS011;44704;50.122;19.932;2022-12-20T07:15:07;52.30;;;24.10;;
58918;SDS011;44704;50.122;19.932;2022-12-20T07:17:34;42.60;;;21.90;;
58918;SDS011;44704;50.122;19.932;2022-12-20T07:20:00;48.60;;;22.10;;
58918;SDS011;44704;50.122;19.932;2022-12-20T07:22:26;50.10;;;21.90;;
58918;SDS011;44704;50.122;19.932;2022-12-20T07:24:52;46.40;;;22.40;;
58918;SDS011;44704;50.122;19.932;2022-12-20T07:27:18;49.10;;;23.00;;
58918;SDS011;44704;50.122;19.932;2022-12-20T07:29:44;51.60;;;22.30;;
58918;SDS011;44704;50.122;19.932;2022-12-20T07:32:11;45.60;;;20.80;;
58918;SDS011;44704;50.122;19.932;2022-12-20T07:34:38;45.40;;;21.60;;
58918;SDS011;44704;50.122;19.932;2022-12-20T07:37:04;36.20;;;18.40;;
58918;SDS011;44704;50.122;19.932;2022-12-20T07:39:30;43.10;;;20.80;;
58918;SDS011;44704;50.122;19.932;2022-12-20T07:41:56;45.40;;;19.20;;
58918;SDS011;44704;50.122;19.932;2022-12-20T07:44:23;45.40;;;21.20;;
58918;SDS011;44704;50.122;19.932;2022-12-20T07:46:49;39.50;;;18.60;;
58918;SDS011;44704;50.122;19.932;2022-12-20T07:49:15;35.50;;;18.20;;
58918;SDS011;44704;50.122;19.932;2022-12-20T07:51:42;44.50;;;20.20;;
58918;SDS011;44704;50.122;19.932;2022-12-20T07:54:17;42.90;;;18.70;;
58918;SDS011;44704;50.122;19.932;2022-12-20T07:56:50;45.30;;;20.80;;
58918;SDS011;44704;50.122;19.932;2022-12-20T07:59:25;45.30;;;21.10;;
58918;SDS011;44704;50.122;19.932;2022-12-20T08:01:55;41.20;;;17.90;;
58918;SDS011;44704;50.122;19.932;2022-12-20T08:04:23;39.90;;;18.30;;
58918;SDS011;44704;50.122;19.932;2022-12-20T08:06:51;38.40;;;17.40;;
58918;SDS011;44704;50.122;19.932;2022-12-20T08:11:50;37.10;;;16.90;;
58918;SDS011;44704;50.122;19.932;2022-12-20T08:14:18;39.70;;;17.70;;
58918;SDS011;44704;50.122;19.932;2022-12-20T08:16:44;35.60;;;17.90;;
58918;SDS011;44704;50.122;19.932;2022-12-20T08:19:11;34.60;;;17.80;;
58918;SDS011;44704;50.122;19.932;2022-12-20T08:21:37;27.70;;;13.90;;
58918;SDS011;44704;50.122;19.932;2022-12-20T08:24:04;40.20;;;17.50;;
58918;SDS011;44704;50.122;19.932;2022-12-20T08:26:32;37.00;;;16.40;;
58918;SDS011;44704;50.122;19.932;2022-12-20T08:29:02;40.60;;;17.10;;
58918;SDS011;44704;50.122;19.932;2022-12-20T08:31:28;37.20;;;17.20;;
58918;SDS011;44704;50.122;19.932;2022-12-20T08:33:55;35.50;;;16.90;;
58918;SDS011;44704;50.122;19.932;2022-12-20T08:36:21;31.30;;;14.70;;
58918;SDS011;44704;50.122;19.932;2022-12-20T08:38:47;42.40;;;17.90;;
58918;SDS011;44704;50.122;19.932;2022-12-20T08:41:14;42.30;;;18.20;;
58918;SDS011;44704;50.122;19.932;2022-12-20T08:43:41;39.00;;;17.20;;
58918;SDS011;44704;50.122;19.932;2022-12-20T08:46:08;32.60;;;17.10;;
58918;SDS011;44704;50.122;19.932;2022-12-20T08:48:37;35.60;;;15.70;;
58918;SDS011;44704;50.122;19.932;2022-12-20T08:51:05;37.40;;;17.40;;
58918;SDS011;44704;50.122;19.932;2022-12-20T08:53:33;36.00;;;17.80;;
58918;SDS011;44704;50.122;19.932;2022-12-20T08:56:04;33.20;;;16.20;;
58918;SDS011;44704;50.122;19.932;2022-12-20T08:58:32;34.60;;;17.00;;
58918;SDS011;44704;50.122;19.932;2022-12-20T09:00:59;40.40;;;17.00;;
58918;SDS011;44704;50.122;19.932;2022-12-20T09:03:29;40.40;;;17.40;;
58918;SDS011;44704;50.122;19.932;2022-12-20T09:05:56;34.70;;;15.90;;
58918;SDS011;44704;50.122;19.932;2022-12-20T09:08:23;40.00;;;16.70;;
58918;SDS011;44704;50.122;19.932;2022-12-20T09:10:50;37.00;;;17.30;;
58918;SDS011;44704;50.122;19.932;2022-12-20T09:13:18;33.10;;;16.10;;
58918;SDS011;44704;50.122;19.932;2022-12-20T09:15:44;36.90;;;15.80;;
58918;SDS011;44704;50.122;19.932;2022-12-20T09:18:10;33.80;;;15.90;;
58918;SDS011;44704;50.122;19.932;2022-12-20T09:20:43;38.30;;;18.60;;
58918;SDS011;44704;50.122;19.932;2022-12-20T09:23:10;34.40;;;17.30;;
58918;SDS011;44704;50.122;19.932;2022-12-20T09:25:37;35.10;;;17.40;;
58918;SDS011;44704;50.122;19.932;2022-12-20T09:28:03;39.20;;;17.00;;
58918;SDS011;44704;50.122;19.932;2022-12-20T09:30:30;38.30;;;18.00;;
58918;SDS011;44704;50.122;19.932;2022-12-20T09:32:56;39.40;;;18.10;;
58918;SDS011;44704;50.122;19.932;2022-12-20T09:35:22;40.10;;;19.20;;
58918;SDS011;44704;50.122;19.932;2022-12-20T09:37:48;39.20;;;18.70;;
58918;SDS011;44704;50.122;19.932;2022-12-20T09:40:18;39.90;;;18.10;;
58918;SDS011;44704;50.122;19.932;2022-12-20T09:42:47;34.80;;;16.70;;
58918;SDS011;44704;50.122;19.932;2022-12-20T09:45:18;41.50;;;20.40;;
58918;SDS011;44704;50.122;19.932;2022-12-20T09:47:51;38.10;;;18.20;;
58918;SDS011;44704;50.122;19.932;2022-12-20T09:50:17;44.60;;;19.40;;
58918;SDS011;44704;50.122;19.932;2022-12-20T09:55:42;38.10;;;17.70;;
58918;SDS011;44704;50.122;19.932;2022-12-20T10:00:41;47.60;;;20.60;;
58918;SDS011;44704;50.122;19.932;2022-12-20T10:03:28;44.70;;;20.40;;
58918;SDS011;44704;50.122;19.932;2022-12-20T10:06:03;41.40;;;20.00;;
58918;SDS011;44704;50.122;19.932;2022-12-20T10:08:42;39.50;;;18.10;;
58918;SDS011;44704;50.122;19.932;2022-12-20T10:16:55;39.30;;;18.70;;
58918;SDS011;44704;50.122;19.932;2022-12-20T10:19:41;41.90;;;19.30;;
58918;SDS011;44704;50.122;19.932;2022-12-20T10:22:45;38.40;;;19.50;;
58918;SDS011;44704;50.122;19.932;2022-12-20T10:25:33;40.10;;;19.70;;
58918;SDS011;44704;50.122;19.932;2022-12-20T10:28:00;39.50;;;20.20;;
58918;SDS011;44704;50.122;19.932;2022-12-20T10:30:35;41.80;;;19.40;;
58918;SDS011;44704;50.122;19.932;2022-12-20T10:33:02;39.10;;;19.10;;
58918;SDS011;44704;50.122;19.932;2022-12-20T10:38:06;41.50;;;19.90;;
58918;SDS011;44704;50.122;19.932;2022-12-20T10:40:39;41.20;;;20.20;;
58918;SDS011;44704;50.122;19.932;2022-12-20T10:43:05;34.30;;;18.20;;
58918;SDS011;44704;50.122;19.932;2022-12-20T10:45:41;36.20;;;18.90;;
58918;SDS011;44704;50.122;19.932;2022-12-20T10:51:01;35.00;;;19.20;;
58918;SDS011;44704;50.122;19.932;2022-12-20T10:53:54;37.70;;;19.50;;
58918;SDS011;44704;50.122;19.932;2022-12-20T10:56:22;39.60;;;19.80;;
58918;SDS011;44704;50.122;19.932;2022-12-20T10:58:56;45.00;;;20.70;;
58918;SDS011;44704;50.122;19.932;2022-12-20T11:01:31;39.30;;;19.50;;
58918;SDS011;44704;50.122;19.932;2022-12-20T11:04:01;41.80;;;19.50;;
58918;SDS011;44704;50.122;19.932;2022-12-20T11:06:39;44.00;;;19.80;;
58918;SDS011;44704;50.122;19.932;2022-12-20T11:09:22;44.10;;;21.40;;
58918;SDS011;44704;50.122;19.932;2022-12-20T11:11:57;44.90;;;21.70;;
58918;SDS011;44704;50.122;19.932;2022-12-20T11:14:23;40.60;;;21.10;;
58918;SDS011;44704;50.122;19.932;2022-12-20T11:16:50;42.30;;;21.00;;
58918;SDS011;44704;50.122;19.932;2022-12-20T11:27:39;41.50;;;21.80;;
58918;SDS011;44704;50.122;19.932;2022-12-20T11:30:08;42.10;;;21.50;;
58918;SDS011;44704;50.122;19.932;2022-12-20T11:32:52;45.30;;;21.80;;
58918;SDS011;44704;50.122;19.932;2022-12-20T11:38:24;38.60;;;20.40;;
58918;SDS011;44704;50.122;19.932;2022-12-20T11:46:13;50.70;;;25.90;;
58918;SDS011;44704;50.122;19.932;2022-12-20T11:51:23;46.70;;;22.80;;
58918;SDS011;44704;50.122;19.932;2022-12-20T11:57:01;42.10;;;20.50;;
58918;SDS011;44704;50.122;19.932;2022-12-20T11:59:39;40.40;;;20.60;;
58918;SDS011;44704;50.122;19.932;2022-12-20T12:07:47;43.00;;;23.60;;
58918;SDS011;44704;50.122;19.932;2022-12-20T12:10:21;50.70;;;23.50;;
58918;SDS011;44704;50.122;19.932;2022-12-20T12:13:05;48.10;;;23.00;;
58918;SDS011;44704;50.122;19.932;2022-12-20T12:15:52;41.60;;;21.50;;
58918;SDS011;44704;50.122;19.932;2022-12-20T12:18:26;43.00;;;20.20;;
58918;SDS011;44704;50.122;19.932;2022-12-20T12:28:57;45.30;;;22.60;;
58918;SDS011;44704;50.122;19.932;2022-12-20T12:39:42;43.50;;;21.60;;
58918;SDS011;44704;50.122;19.932;2022-12-20T12:45:14;50.10;;;23.90;;
58918;SDS011;44704;50.122;19.932;2022-12-20T12:47:50;49.10;;;24.90;;
58918;SDS011;44704;50.122;19.932;2022-12-20T12:50:26;46.50;;;23.80;;
58918;SDS011;44704;50.122;19.932;2022-12-20T12:52:56;62.00;;;25.70;;
58918;SDS011;44704;50.122;19.932;2022-12-20T13:00:57;50.40;;;24.10;;
58918;SDS011;44704;50.122;19.932;2022-12-20T13:11:35;43.70;;;18.80;;
58918;SDS011;44704;50.122;19.932;2022-12-20T13:16:39;35.80;;;18.20;;
58918;SDS011;44704;50.122;19.932;2022-12-20T13:24:39;38.10;;;18.10;;
58918;SDS011;44704;50.122;19.932;2022-12-20T13:29:57;45.50;;;21.80;;
58918;SDS011;44704;50.122;19.932;2022-12-20T13:37:55;39.90;;;21.30;;
58918;SDS011;44704;50.122;19.932;2022-12-20T13:40:41;43.30;;;20.90;;
58918;SDS011;44704;50.122;19.932;2022-12-20T13:43:23;42.00;;;20.70;;
58918;SDS011;44704;50.122;19.932;2022-12-20T13:48:34;47.30;;;23.40;;
58918;SDS011;44704;50.122;19.932;2022-12-20T13:51:16;47.60;;;22.60;;
58918;SDS011;44704;50.122;19.932;2022-12-20T13:54:35;53.00;;;26.30;;
58918;SDS011;44704;50.122;19.932;2022-12-20T13:57:13;58.10;;;27.00;;
58918;SDS011;44704;50.122;19.932;2022-12-20T14:00:03;58.30;;;26.70;;
58918;SDS011;44704;50.122;19.932;2022-12-20T14:02:35;68.90;;;32.40;;
58918;SDS011;44704;50.122;19.932;2022-12-20T14:05:54;65.40;;;30.80;;
58918;SDS011;44704;50.122;19.932;2022-12-20T14:08:01;71.20;;;33.00;;
58918;SDS011;44704;50.122;19.932;2022-12-20T14:10:31;71.80;;;34.00;;
58918;SDS011;44704;50.122;19.932;2022-12-20T14:12:59;75.30;;;32.70;;
58918;SDS011;44704;50.122;19.932;2022-12-20T14:15:27;71.50;;;34.30;;
58918;SDS011;44704;50.122;19.932;2022-12-20T14:17:56;66.50;;;33.00;;
58918;SDS011;44704;50.122;19.932;2022-12-20T14:20:30;69.50;;;32.90;;
58918;SDS011;44704;50.122;19.932;2022-12-20T14:23:02;65.40;;;31.40;;
58918;SDS011;44704;50.122;19.932;2022-12-20T14:25:40;69.10;;;31.80;;
58918;SDS011;44704;50.122;19.932;2022-12-20T14:28:17;72.40;;;36.40;;
58918;SDS011;44704;50.122;19.932;2022-12-20T14:31:03;59.40;;;29.10;;
58918;SDS011;44704;50.122;19.932;2022-12-20T14:38:44;60.80;;;27.40;;
58918;SDS011;44704;50.122;19.932;2022-12-20T14:41:33;61.70;;;27.00;;
58918;SDS011;44704;50.122;19.932;2022-12-20T14:44:03;47.20;;;22.30;;
58918;SDS011;44704;50.122;19.932;2022-12-20T14:46:32;48.70;;;23.50;;
58918;SDS011;44704;50.122;19.932;2022-12-20T14:49:05;54.30;;;27.20;;
58918;SDS011;44704;50.122;19.932;2022-12-20T14:57:14;58.50;;;27.60;;
58918;SDS011;44704;50.122;19.932;2022-12-20T15:00:02;49.80;;;23.90;;
58918;SDS011;44704;50.122;19.932;2022-12-20T15:02:38;46.20;;;21.50;;
58918;SDS011;44704;50.122;19.932;2022-12-20T15:10:42;52.30;;;22.80;;
58918;SDS011;44704;50.122;19.932;2022-12-20T15:13:18;44.90;;;21.70;;
58918;SDS011;44704;50.122;19.932;2022-12-20T15:15:47;47.40;;;22.90;;
58918;SDS011;44704;50.122;19.932;2022-12-20T15:18:13;57.50;;;26.40;;
58918;SDS011;44704;50.122;19.932;2022-12-20T15:20:42;63.60;;;29.10;;
58918;SDS011;44704;50.122;19.932;2022-12-20T15:23:16;64.10;;;27.10;;
58918;SDS011;44704;50.122;19.932;2022-12-20T15:25:44;64.00;;;28.40;;
58918;SDS011;44704;50.122;19.932;2022-12-20T15:28:12;51.60;;;26.40;;
58918;SDS011;44704;50.122;19.932;2022-12-20T15:30:49;56.80;;;27.70;;
58918;SDS011;44704;50.122;19.932;2022-12-20T15:33:24;56.00;;;26.10;;
58918;SDS011;44704;50.122;19.932;2022-12-20T15:35:53;52.20;;;25.10;;
58918;SDS011;44704;50.122;19.932;2022-12-20T15:38:23;63.30;;;27.90;;
58918;SDS011;44704;50.122;19.932;2022-12-20T15:40:53;59.70;;;30.20;;
58918;SDS011;44704;50.122;19.932;2022-12-20T15:43:21;60.40;;;27.60;;
58918;SDS011;44704;50.122;19.932;2022-12-20T15:45:49;65.40;;;30.60;;
58918;SDS011;44704;50.122;19.932;2022-12-20T15:48:19;63.40;;;30.00;;
58918;SDS011;44704;50.122;19.932;2022-12-20T15:50:49;64.10;;;31.10;;
58918;SDS011;44704;50.122;19.932;2022-12-20T15:53:24;66.70;;;32.30;;
58918;SDS011;44704;50.122;19.932;2022-12-20T15:55:55;66.70;;;32.90;;
58918;SDS011;44704;50.122;19.932;2022-12-20T15:58:22;67.90;;;33.50;;
58918;SDS011;44704;50.122;19.932;2022-12-20T16:00:50;71.90;;;34.20;;
58918;SDS011;44704;50.122;19.932;2022-12-20T16:03:23;71.00;;;33.70;;
58918;SDS011;44704;50.122;19.932;2022-12-20T16:05:55;81.30;;;36.40;;
58918;SDS011;44704;50.122;19.932;2022-12-20T16:08:21;77.50;;;35.90;;
58918;SDS011;44704;50.122;19.932;2022-12-20T16:10:48;75.10;;;37.50;;
58918;SDS011;44704;50.122;19.932;2022-12-20T16:13:20;75.00;;;35.30;;
58918;SDS011;44704;50.122;19.932;2022-12-20T16:15:48;71.70;;;35.00;;
58918;SDS011;44704;50.122;19.932;2022-12-20T16:18:15;74.80;;;33.90;;
58918;SDS011;44704;50.122;19.932;2022-12-20T16:20:41;81.90;;;36.20;;
58918;SDS011;44704;50.122;19.932;2022-12-20T16:23:12;72.50;;;34.10;;
58918;SDS011;44704;50.122;19.932;2022-12-20T16:25:43;75.40;;;33.00;;
58918;SDS011;44704;50.122;19.932;2022-12-20T16:28:09;75.00;;;36.10;;
58918;SDS011;44704;50.122;19.932;2022-12-20T16:30:35;72.00;;;33.60;;
58918;SDS011;44704;50.122;19.932;2022-12-20T16:33:02;75.40;;;35.70;;
58918;SDS011;44704;50.122;19.932;2022-12-20T16:35:29;76.60;;;35.80;;
58918;SDS011;44704;50.122;19.932;2022-12-20T16:37:57;77.10;;;37.10;;
58918;SDS011;44704;50.122;19.932;2022-12-20T16:40:26;78.80;;;36.30;;
58918;SDS011;44704;50.122;19.932;2022-12-20T16:42:55;78.70;;;36.00;;
58918;SDS011;44704;50.122;19.932;2022-12-20T16:45:23;79.50;;;35.40;;
58918;SDS011;44704;50.122;19.932;2022-12-20T16:47:52;73.00;;;33.50;;
58918;SDS011;44704;50.122;19.932;2022-12-20T16:50:20;86.80;;;37.70;;
58918;SDS011;44704;50.122;19.932;2022-12-20T16:52:48;75.80;;;37.70;;
58918;SDS011;44704;50.122;19.932;2022-12-20T16:55:22;83.50;;;39.50;;
58918;SDS011;44704;50.122;19.932;2022-12-20T16:57:51;89.20;;;39.80;;
58918;SDS011;44704;50.122;19.932;2022-12-20T17:00:19;86.40;;;40.30;;